Time;durP1;ratioP1;P1;durP2;ratioP2;P2;SDS_P1;SDS_P2;PMS_P1;PMS_P2;Temp;Humidity;BMP_temperature;BMP_pressure;BME280_temperature;BME280_humidity;BME280_pressure;Samples;Min_cycle;Max_cycle;Signal;HPM_P1;HPM_P2
2021/01/18 00:00:47;;;;;;;18.98;6.22;;;3.60;99.90;;;;;;5018181;28;20037;-93
2021/01/18 00:03:20;;;;;;;21.92;5.93;;;3.50;99.90;;;;;;5034191;28;20037;-94
2021/01/18 00:06:08;;;;;;;20.60;6.07;;;3.50;99.90;;;;;;5033741;28;20340;-92
2021/01/18 00:08:55;;;;;;;17.92;6.25;;;3.50;99.90;;;;;;5033323;28;20063;-92
2021/01/18 00:11:32;;;;;;;20.42;6.32;;;3.50;99.90;;;;;;5032520;28;20388;-91
2021/01/18 00:13:58;;;;;;;17.88;6.05;;;3.60;99.90;;;;;;5018072;28;20493;-93
2021/01/18 00:16:24;;;;;;;21.35;6.25;;;3.60;99.90;;;;;;5015889;28;20060;-92
2021/01/18 00:18:50;;;;;;;18.08;5.85;;;3.60;99.90;;;;;;5033622;28;20037;-92
2021/01/18 00:21:18;;;;;;;16.48;5.32;;;3.60;99.90;;;;;;5001409;28;20076;-90
2021/01/18 00:23:46;;;;;;;14.60;5.22;;;3.50;99.90;;;;;;5001134;28;20096;-91
2021/01/18 00:26:14;;;;;;;15.48;6.50;;;3.50;99.90;;;;;;5018167;28;20120;-91
2021/01/18 00:28:40;;;;;;;14.30;6.00;;;3.40;99.90;;;;;;5017596;28;20037;-92
2021/01/18 00:31:15;;;;;;;18.02;7.22;;;3.40;99.90;;;;;;5021598;28;20048;-92
2021/01/18 00:33:42;;;;;;;14.52;5.72;;;3.40;99.90;;;;;;5035904;28;20052;-90
2021/01/18 00:36:09;;;;;;;16.25;6.20;;;3.40;99.90;;;;;;5037140;28;20057;-90
2021/01/18 00:38:55;;;;;;;17.08;6.15;;;3.40;99.90;;;;;;5037169;28;20040;-90
2021/01/18 00:41:23;;;;;;;19.08;7.40;;;3.50;99.90;;;;;;5036918;28;20071;-90
2021/01/18 00:43:51;;;;;;;14.40;6.93;;;3.50;99.90;;;;;;5020663;28;20036;-91
2021/01/18 00:46:19;;;;;;;17.30;7.07;;;3.50;99.90;;;;;;5037755;28;20464;-91
2021/01/18 00:48:46;;;;;;;20.77;7.47;;;3.60;99.90;;;;;;5021164;28;20033;-90
2021/01/18 00:51:13;;;;;;;23.42;7.95;;;3.60;99.90;;;;;;5037074;28;20044;-91
2021/01/18 00:53:40;;;;;;;15.23;7.15;;;3.60;99.90;;;;;;5020458;28;20124;-92
2021/01/18 00:56:34;;;;;;;14.90;7.57;;;3.60;99.90;;;;;;5034042;28;20259;-90
2021/01/18 00:59:00;;;;;;;;;;;3.60;99.90;;;;;;5033126;28;20135;-93
2021/01/18 01:01:39;;;;;;;20.27;8.85;;;3.60;99.90;;;;;;5028895;28;19912;-91
2021/01/18 01:04:06;;;;;;;21.92;8.68;;;3.60;99.90;;;;;;5005758;28;20488;-92
2021/01/18 01:06:38;;;;;;;20.45;8.75;;;3.60;99.90;;;;;;5033866;28;20041;-91
2021/01/18 01:09:08;;;;;;;23.40;10.18;;;3.60;99.90;;;;;;5034409;28;20041;-91
2021/01/18 01:11:42;;;;;;;26.05;9.98;;;3.60;99.90;;;;;;5031425;28;20052;-91
2021/01/18 01:14:15;;;;;;;17.27;9.40;;;3.60;99.90;;;;;;5038574;28;20604;-90
2021/01/18 01:16:47;;;;;;;17.60;8.73;;;3.60;99.90;;;;;;5014512;28;20100;-92
2021/01/18 01:19:14;;;;;;;24.83;8.80;;;3.60;99.90;;;;;;5037143;28;20040;-91
2021/01/18 01:21:47;;;;;;;17.08;8.57;;;3.50;99.90;;;;;;5036028;28;20037;-91
2021/01/18 01:24:19;;;;;;;22.63;7.90;;;3.40;99.90;;;;;;5017673;28;20370;-91
2021/01/18 01:26:46;;;;;;;14.68;7.18;;;3.40;99.90;;;;;;5036492;28;20628;-91
2021/01/18 01:29:12;;;;;;;16.48;7.60;;;3.30;99.90;;;;;;5035488;28;20025;-91
2021/01/18 01:31:48;;;;;;;17.20;7.13;;;3.30;99.90;;;;;;5036472;28;20044;-91
2021/01/18 01:34:15;;;;;;;20.27;9.18;;;3.30;99.90;;;;;;5018795;28;20064;-92
2021/01/18 01:36:43;;;;;;;17.67;8.45;;;3.40;99.90;;;;;;5006678;28;20078;-92
2021/01/18 01:39:09;;;;;;;17.60;8.90;;;3.40;99.90;;;;;;5011652;28;20039;-91
2021/01/18 01:41:39;;;;;;;19.75;9.10;;;3.40;99.90;;;;;;5016062;28;20034;-92
2021/01/18 01:44:06;;;;;;;20.58;10.27;;;3.50;99.90;;;;;;4994015;28;20073;-92
2021/01/18 01:46:33;;;;;;;17.00;10.10;;;3.50;99.90;;;;;;5015588;28;20131;-93
2021/01/18 01:49:01;;;;;;;23.92;10.25;;;3.50;99.90;;;;;;5009116;28;20057;-92
2021/01/18 01:51:29;;;;;;;22.75;10.35;;;3.40;99.90;;;;;;5031893;28;20478;-91
2021/01/18 01:53:59;;;;;;;21.45;9.27;;;3.40;99.90;;;;;;5016750;28;20084;-91
2021/01/18 01:56:25;;;;;;;21.90;9.90;;;3.30;99.90;;;;;;4996875;28;20033;-90
2021/01/18 01:58:54;;;;;;;24.85;8.80;;;3.20;99.90;;;;;;4999336;28;20048;-90
2021/01/18 02:01:23;;;;;;;17.80;8.20;;;3.20;99.90;;;;;;5012144;28;20038;-92
2021/01/18 02:03:52;;;;;;;20.95;8.70;;;3.10;99.90;;;;;;5012476;28;20471;-91
2021/01/18 02:06:20;;;;;;;21.40;9.55;;;3.10;99.90;;;;;;5003282;28;20037;-91
2021/01/18 02:09:05;;;;;;;14.43;7.85;;;3.00;99.90;;;;;;5001974;28;20485;-91
2021/01/18 02:11:39;;;;;;;17.70;8.18;;;3.00;99.90;;;;;;5007067;28;20093;-91
2021/01/18 02:14:25;;;;;;;19.25;8.57;;;3.00;99.90;;;;;;5014698;28;20045;-91
2021/01/18 02:17:14;;;;;;;17.17;7.82;;;3.00;99.90;;;;;;5016407;28;20536;-91
2021/01/18 02:20:15;;;;;;;20.27;8.75;;;3.00;99.90;;;;;;5017281;28;20030;-91
2021/01/18 02:23:20;;;;;;;20.33;10.48;;;2.90;99.90;;;;;;4998357;28;20507;-92
2021/01/18 02:26:05;;;;;;;23.33;10.80;;;3.00;99.90;;;;;;5000793;28;20034;-93
2021/01/18 02:28:49;;;;;;;18.65;8.75;;;3.00;99.90;;;;;;5022111;28;20040;-92
2021/01/18 02:31:30;;;;;;;14.73;8.48;;;3.00;99.90;;;;;;5015136;28;20486;-91
2021/01/18 02:34:23;;;;;;;15.98;8.05;;;3.00;99.90;;;;;;5053430;28;20085;-92
2021/01/18 02:37:12;;;;;;;18.40;8.07;;;3.00;99.90;;;;;;5044691;28;20052;-91
2021/01/18 02:39:58;;;;;;;17.15;8.93;;;3.00;99.90;;;;;;5048244;28;20033;-90
2021/01/18 02:42:32;;;;;;;21.25;8.90;;;3.00;99.90;;;;;;5024143;28;20139;-91
2021/01/18 02:44:58;;;;;;;;;;;3.00;99.90;;;;;;5039959;28;20040;-93
2021/01/18 02:47:31;;;;;;;16.85;9.23;;;2.90;99.90;;;;;;5038626;28;19912;-93
2021/01/18 02:50:03;;;;;;;20.05;9.10;;;2.90;99.90;;;;;;5023413;28;20052;-92
2021/01/18 02:52:30;;;;;;;18.67;9.10;;;2.90;99.90;;;;;;5023156;28;20049;-93
2021/01/18 03:10:55;;;;;;;15.63;6.97;;;2.60;99.90;;;;;;6281408;23;20020;-88
2021/01/18 03:13:36;;;;;;;18.10;7.85;;;2.60;99.90;;;;;;6255546;23;19992;-82
2021/01/18 03:16:10;;;;;;;20.95;8.90;;;2.60;99.90;;;;;;6224280;23;20026;-82
2021/01/18 03:18:38;;;;;;;15.85;8.90;;;2.60;99.90;;;;;;6268515;23;20004;-82
2021/01/18 03:21:04;;;;;;;19.63;9.25;;;2.60;99.90;;;;;;6242579;23;20000;-84
2021/01/18 03:23:30;;;;;;;23.75;9.65;;;2.60;99.90;;;;;;6239910;23;20000;-85
2021/01/18 03:25:56;;;;;;;22.13;9.77;;;2.60;99.90;;;;;;6228662;23;20403;-88
2021/01/18 03:28:24;;;;;;;23.85;10.45;;;2.60;99.90;;;;;;6228246;23;20043;-88
2021/01/18 03:30:50;;;;;;;24.05;11.20;;;2.60;99.90;;;;;;6228354;23;20004;-88
2021/01/18 03:33:18;;;;;;;23.75;11.35;;;2.60;99.90;;;;;;6229917;23;20090;-86
2021/01/18 03:35:43;;;;;;;20.08;9.73;;;2.60;99.90;;;;;;6261932;23;20035;-89
2021/01/18 03:38:10;;;;;;;21.67;9.60;;;2.60;99.90;;;;;;6232549;23;20004;-87
2021/01/18 03:40:37;;;;;;;26.23;10.35;;;2.60;99.90;;;;;;6241133;23;20046;-88
2021/01/18 03:43:05;;;;;;;20.75;9.45;;;2.60;99.90;;;;;;6260928;22;20020;-85
2021/01/18 03:45:34;;;;;;;22.35;9.70;;;2.60;99.90;;;;;;6258600;22;20050;-86
2021/01/18 03:48:00;;;;;;;19.48;9.73;;;2.50;99.90;;;;;;6232890;23;20004;-86
2021/01/18 03:50:26;;;;;;;20.77;10.68;;;2.50;99.90;;;;;;6255564;23;20004;-87
2021/01/18 03:52:52;;;;;;;20.23;10.68;;;2.50;99.90;;;;;;6255104;23;20019;-87
2021/01/18 03:55:19;;;;;;;26.75;11.20;;;2.50;99.90;;;;;;6228652;23;20012;-87
2021/01/18 03:57:46;;;;;;;26.02;11.63;;;2.50;99.90;;;;;;6254810;23;20039;-86
2021/01/18 04:00:12;;;;;;;17.45;10.10;;;2.50;99.90;;;;;;6254559;23;20000;-88
2021/01/18 04:02:38;;;;;;;24.23;10.32;;;2.50;99.90;;;;;;6226689;23;20094;-87
2021/01/18 04:05:05;;;;;;;21.08;10.30;;;2.50;99.90;;;;;;6227675;23;20435;-86
2021/01/18 04:07:30;;;;;;;17.85;10.43;;;2.50;99.90;;;;;;6224506;23;20001;-86
2021/01/18 04:09:56;;;;;;;24.75;11.43;;;2.60;99.90;;;;;;6270459;22;20022;-85
2021/01/18 04:12:23;;;;;;;24.88;10.70;;;2.60;99.90;;;;;;6251895;22;20079;-88
2021/01/18 04:14:49;;;;;;;24.48;11.52;;;2.60;99.90;;;;;;6278619;22;20003;-86
2021/01/18 04:17:16;;;;;;;27.98;12.20;;;2.70;99.90;;;;;;6251871;22;20015;-85
2021/01/18 04:19:42;;;;;;;22.83;11.10;;;2.60;99.90;;;;;;6278643;22;19996;-87
2021/01/18 04:22:07;;;;;;;21.52;10.25;;;2.60;99.90;;;;;;6251626;22;20087;-85
2021/01/18 04:24:33;;;;;;;24.60;11.32;;;2.60;99.90;;;;;;6278656;22;20006;-87
2021/01/18 04:27:00;;;;;;;23.27;11.32;;;2.50;99.90;;;;;;6251993;22;19995;-87
2021/01/18 04:29:26;;;;;;;27.13;12.95;;;2.50;99.90;;;;;;6252168;22;20008;-87
2021/01/18 04:31:52;;;;;;;19.75;11.23;;;2.50;99.90;;;;;;6251814;22;20002;-85
2021/01/18 04:34:18;;;;;;;24.60;11.68;;;2.50;99.90;;;;;;6251326;22;20012;-85
2021/01/18 04:36:43;;;;;;;27.67;11.63;;;2.50;99.90;;;;;;6251029;22;20019;-89
2021/01/18 04:39:10;;;;;;;21.05;11.98;;;2.50;99.90;;;;;;6251447;22;20000;-86
2021/01/18 04:41:46;;;;;;;24.95;12.13;;;2.50;99.90;;;;;;6251672;22;20069;-86
2021/01/18 04:44:16;;;;;;;23.48;11.68;;;2.50;99.90;;;;;;6251367;22;20110;-85
2021/01/18 04:46:44;;;;;;;20.77;10.60;;;2.50;99.90;;;;;;6251649;22;20042;-85
2021/01/18 04:49:10;;;;;;;22.88;11.95;;;2.50;99.90;;;;;;6259961;22;20448;-82
2021/01/18 04:51:47;;;;;;;25.25;11.50;;;2.50;99.90;;;;;;6262298;22;20087;-82
2021/01/18 04:54:19;;;;;;;26.88;12.48;;;2.50;99.90;;;;;;6285919;22;20051;-87
2021/01/18 04:57:05;;;;;;;29.50;13.35;;;2.50;99.90;;;;;;6264283;22;20392;-83
2021/01/18 04:59:47;;;;;;;29.67;12.77;;;2.60;99.90;;;;;;6254452;22;20007;-87
2021/01/18 05:02:22;;;;;;;20.45;11.65;;;2.60;99.90;;;;;;6260627;22;20112;-81
2021/01/18 05:04:50;;;;;;;27.08;13.00;;;2.60;99.90;;;;;;6287957;22;20149;-85
2021/01/18 05:08:03;;;;;;;35.95;13.40;;;2.60;99.90;;;;;;6261340;22;20000;-81
2021/01/18 05:10:30;;;;;;;27.25;13.27;;;2.60;99.90;;;;;;6248564;23;20431;-82
2021/01/18 05:12:59;;;;;;;27.30;12.93;;;2.60;99.90;;;;;;6255530;23;20012;-79
2021/01/18 05:15:25;;;;;;;22.80;11.95;;;2.70;99.90;;;;;;6257730;23;20000;-82
2021/01/18 05:18:05;;;;;;;24.80;13.15;;;2.70;99.90;;;;;;6255682;23;20445;-85
2021/01/18 05:20:31;;;;;;;28.58;13.40;;;2.70;99.90;;;;;;6250912;23;20046;-86
2021/01/18 05:22:56;;;;;;;26.23;12.43;;;2.70;99.90;;;;;;6255497;23;20000;-82
2021/01/18 05:25:23;;;;;;;28.42;12.75;;;2.70;99.90;;;;;;6256294;22;20000;-80
2021/01/18 05:28:01;;;;;;;24.02;11.30;;;2.70;99.90;;;;;;6260511;23;20011;-84
2021/01/18 05:30:35;;;;;;;22.92;11.60;;;2.70;99.90;;;;;;6255733;23;20000;-80
2021/01/18 05:33:07;;;;;;;27.20;13.10;;;2.70;99.90;;;;;;6256821;23;20000;-85
2021/01/18 05:35:54;;;;;;;27.77;12.98;;;2.80;99.90;;;;;;6254662;23;20086;-87
2021/01/18 05:38:20;;;;;;;32.50;15.23;;;2.80;99.90;;;;;;6255364;23;20004;-81
2021/01/18 05:40:48;;;;;;;29.30;14.30;;;2.80;99.90;;;;;;6252634;23;20019;-87
2021/01/18 05:43:15;;;;;;;32.83;14.40;;;2.90;99.90;;;;;;6251077;23;20012;-81
2021/01/18 05:45:42;;;;;;;29.20;13.68;;;2.90;99.90;;;;;;6260242;22;20004;-86
2021/01/18 05:48:10;;;;;;;29.67;13.77;;;2.90;99.90;;;;;;6256644;23;20150;-85
2021/01/18 05:50:37;;;;;;;25.65;11.30;;;2.90;99.90;;;;;;6258112;23;20000;-81
2021/01/18 05:53:32;;;;;;;27.13;12.27;;;2.90;99.90;;;;;;6258092;23;19996;-82
2021/01/18 05:56:16;;;;;;;29.25;13.48;;;2.90;99.90;;;;;;6256420;23;20004;-81
2021/01/18 05:58:42;;;;;;;27.30;13.07;;;2.90;99.90;;;;;;6254839;23;20079;-87
2021/01/18 06:01:07;;;;;;;28.65;11.68;;;2.90;99.90;;;;;;6248023;23;20097;-84
2021/01/18 06:03:33;;;;;;;36.10;14.05;;;2.90;99.90;;;;;;6241807;22;20015;-86
2021/01/18 06:05:59;;;;;;;27.00;13.65;;;2.90;99.90;;;;;;6241050;23;20019;-87
2021/01/18 06:08:26;;;;;;;31.15;14.00;;;2.90;99.90;;;;;;6244402;22;20004;-86
2021/01/18 06:10:54;;;;;;;27.88;13.70;;;3.00;99.90;;;;;;6246120;22;20023;-85
2021/01/18 06:13:21;;;;;;;28.38;12.95;;;3.00;99.90;;;;;;6246343;22;20042;-86
2021/01/18 06:15:48;;;;;;;34.53;15.02;;;3.00;99.90;;;;;;6246082;22;20041;-84
2021/01/18 06:18:16;;;;;;;32.47;14.27;;;3.10;99.90;;;;;;6245814;22;20011;-86
2021/01/18 06:20:43;;;;;;;31.83;14.02;;;3.10;99.90;;;;;;6275818;22;19996;-83
2021/01/18 06:23:09;;;;;;;26.90;12.98;;;3.00;99.90;;;;;;6276991;22;20004;-85
2021/01/18 06:25:39;;;;;;;34.42;13.75;;;3.00;99.90;;;;;;6249778;22;20049;-85
2021/01/18 06:28:24;;;;;;;30.10;12.27;;;3.00;99.90;;;;;;6250292;22;20000;-85
2021/01/18 06:31:19;;;;;;;33.45;13.30;;;3.00;99.90;;;;;;6277399;22;19999;-85
2021/01/18 06:33:47;;;;;;;36.42;14.20;;;3.00;99.90;;;;;;6250642;22;20004;-84
2021/01/18 06:36:20;;;;;;;30.63;14.43;;;3.00;99.90;;;;;;6277047;22;20015;-86
2021/01/18 06:38:51;;;;;;;37.75;14.77;;;3.00;99.90;;;;;;6277121;22;20000;-84
2021/01/18 06:41:23;;;;;;;31.65;14.90;;;3.10;99.90;;;;;;6249817;22;20065;-85
2021/01/18 06:43:49;;;;;;;28.25;12.65;;;3.10;99.90;;;;;;6277088;22;20007;-85
2021/01/18 06:46:17;;;;;;;30.92;13.00;;;3.10;99.90;;;;;;6277088;22;20004;-85
2021/01/18 06:48:45;;;;;;;28.98;13.27;;;3.10;99.90;;;;;;6276665;22;20000;-85
2021/01/18 06:51:14;;;;;;;31.17;14.10;;;3.10;99.90;;;;;;6250130;22;20003;-87
2021/01/18 06:53:42;;;;;;;29.45;13.35;;;3.10;99.90;;;;;;6276680;22;20330;-83
2021/01/18 06:56:23;;;;;;;29.38;13.70;;;3.10;99.90;;;;;;6250338;22;20015;-86
2021/01/18 06:58:56;;;;;;;29.83;12.60;;;3.00;99.90;;;;;;6277873;22;20003;-85
2021/01/18 07:01:31;;;;;;;29.08;12.45;;;3.00;99.90;;;;;;6252379;22;20088;-86
2021/01/18 07:04:04;;;;;;;30.13;14.20;;;3.00;99.90;;;;;;6250657;22;20430;-85
2021/01/18 07:06:34;;;;;;;;;;;3.00;99.90;;;;;;6251002;22;20008;-86
2021/01/18 07:09:07;;;;;;;27.70;14.07;;;3.00;99.90;;;;;;6277391;22;19915;-85
2021/01/18 07:11:33;;;;;;;37.72;15.30;;;3.00;99.90;;;;;;6250730;22;20004;-86
2021/01/18 07:14:06;;;;;;;42.55;18.80;;;3.00;99.90;;;;;;6250667;22;20311;-85
2021/01/18 07:16:32;;;;;;;33.75;15.20;;;3.10;99.90;;;;;;6277617;22;20007;-85
2021/01/18 07:19:03;;;;;;;35.97;16.73;;;3.10;99.90;;;;;;6248108;22;20305;-87
2021/01/18 07:21:42;;;;;;;36.80;16.30;;;3.10;99.90;;;;;;6224504;22;20003;-88
2021/01/18 07:24:12;;;;;;;36.65;16.52;;;3.10;99.90;;;;;;6249643;22;20011;-88
2021/01/18 07:26:58;;;;;;;34.25;15.52;;;3.10;99.90;;;;;;6249483;22;20015;-85
2021/01/18 07:29:25;;;;;;;29.17;14.73;;;3.10;99.90;;;;;;6254034;22;20000;-87
2021/01/18 07:31:55;;;;;;;31.40;15.48;;;3.00;99.90;;;;;;6249860;22;20334;-88
2021/01/18 07:34:27;;;;;;;36.00;16.83;;;3.10;99.90;;;;;;6249791;22;20000;-88
2021/01/18 07:37:05;;;;;;;29.63;15.20;;;3.10;99.90;;;;;;6248974;22;20015;-84
2021/01/18 07:39:40;;;;;;;37.30;17.70;;;3.10;99.90;;;;;;6249347;22;20010;-85
2021/01/18 07:42:26;;;;;;;36.30;18.00;;;3.10;99.90;;;;;;6248254;22;20453;-86
2021/01/18 07:45:10;;;;;;;35.60;18.35;;;3.10;99.90;;;;;;6275674;22;20370;-83
2021/01/18 07:48:11;;;;;;;32.42;16.83;;;3.20;99.90;;;;;;6276588;22;20005;-84
2021/01/18 07:50:41;;;;;;;32.65;16.20;;;3.10;99.90;;;;;;6127634;23;20010;-81
2021/01/18 07:53:11;;;;;;;34.65;17.38;;;3.20;99.90;;;;;;6255465;22;20083;-84
2021/01/18 07:55:39;;;;;;;40.13;18.25;;;3.20;99.90;;;;;;6249913;22;20008;-85
2021/01/18 07:58:20;;;;;;;34.72;18.13;;;3.20;99.90;;;;;;6277969;22;20034;-81
2021/01/18 08:01:06;;;;;;;38.30;19.85;;;3.30;99.90;;;;;;6277092;22;20004;-83
2021/01/18 08:03:31;;;;;;;48.15;20.23;;;3.30;99.90;;;;;;6252015;22;20015;-85
2021/01/18 08:06:07;;;;;;;45.13;23.45;;;3.30;99.90;;;;;;6257854;22;20000;-83
2021/01/18 08:08:36;;;;;;;40.97;21.48;;;3.40;99.90;;;;;;6277528;22;20019;-85
2021/01/18 08:11:11;;;;;;;34.15;19.38;;;3.40;99.90;;;;;;6277686;22;20085;-85
2021/01/18 08:13:53;;;;;;;39.13;20.33;;;3.40;99.90;;;;;;6251553;22;20010;-85
2021/01/18 08:16:22;;;;;;;45.50;24.17;;;3.50;99.90;;;;;;6253058;22;20045;-86
2021/01/18 08:19:19;;;;;;;40.00;20.55;;;3.50;99.90;;;;;;6288797;22;20022;-83
2021/01/18 08:21:53;;;;;;;42.25;22.00;;;3.50;99.90;;;;;;6299620;22;20043;-86
2021/01/18 08:24:28;;;;;;;37.22;19.33;;;3.50;99.90;;;;;;6301381;22;20035;-84
2021/01/18 08:27:08;;;;;;;42.13;20.48;;;3.50;99.90;;;;;;6268503;22;20053;-82
2021/01/18 08:29:53;;;;;;;42.25;20.75;;;3.50;99.90;;;;;;6261438;22;19995;-82
2021/01/18 08:32:31;;;;;;;52.42;22.88;;;3.50;99.90;;;;;;6259734;22;20030;-83
2021/01/18 08:35:03;;;;;;;40.50;21.35;;;3.60;99.90;;;;;;6250874;22;20008;-85
2021/01/18 08:37:30;;;;;;;42.35;20.40;;;3.60;99.90;;;;;;6249540;22;20517;-85
2021/01/18 08:39:59;;;;;;;48.20;23.95;;;3.60;99.90;;;;;;6249194;22;20365;-87
2021/01/18 08:42:36;;;;;;;45.53;22.88;;;3.70;99.90;;;;;;6275758;22;20011;-83
2021/01/18 08:45:08;;;;;;;38.10;20.65;;;3.70;99.90;;;;;;6276475;22;20000;-83
2021/01/18 08:47:35;;;;;;;43.83;20.05;;;3.70;99.90;;;;;;6279262;22;20006;-84
2021/01/18 08:50:22;;;;;;;39.38;21.20;;;3.70;99.90;;;;;;6251819;22;20000;-83
2021/01/18 08:52:50;;;;;;;44.28;20.42;;;3.80;99.90;;;;;;6251790;22;20049;-84
2021/01/18 08:55:39;;;;;;;39.17;22.10;;;3.80;99.90;;;;;;6252694;22;20087;-84
2021/01/18 08:58:05;;;;;;;37.83;20.27;;;3.80;99.90;;;;;;6279482;22;20035;-84
2021/01/18 09:00:45;;;;;;;43.97;21.17;;;3.90;99.90;;;;;;6252054;22;19999;-84
2021/01/18 09:03:16;;;;;;;47.88;24.38;;;3.90;99.90;;;;;;6253303;22;20005;-85
2021/01/18 09:05:42;;;;;;;39.08;21.70;;;4.00;99.90;;;;;;6251212;22;20000;-84
2021/01/18 09:08:08;;;;;;;44.40;23.92;;;4.00;99.90;;;;;;6276687;22;20010;-85
2021/01/18 09:10:35;;;;;;;41.25;24.17;;;4.00;99.90;;;;;;6250993;22;20038;-84
2021/01/18 09:13:05;;;;;;;39.70;21.55;;;4.10;99.90;;;;;;6251184;22;19999;-84
2021/01/18 09:15:33;;;;;;;40.30;23.60;;;4.10;99.90;;;;;;6250300;22;20004;-84
2021/01/18 09:18:08;;;;;;;49.05;25.02;;;4.20;99.90;;;;;;6250878;22;20102;-83
2021/01/18 09:20:45;;;;;;;39.35;23.58;;;4.20;99.90;;;;;;6250610;22;20418;-85
2021/01/18 09:23:13;;;;;;;45.35;24.70;;;4.30;99.90;;;;;;6277189;22;20417;-84
2021/01/18 09:25:40;;;;;;;43.70;23.10;;;4.30;99.90;;;;;;6249167;22;20094;-83
2021/01/18 09:28:12;;;;;;;38.28;24.20;;;4.40;99.90;;;;;;6249600;22;20094;-84
2021/01/18 09:30:40;;;;;;;47.72;25.77;;;4.40;99.90;;;;;;6224536;22;20046;-84
2021/01/18 09:33:08;;;;;;;38.33;23.65;;;4.40;99.90;;;;;;6277228;22;20027;-84
2021/01/18 09:35:36;;;;;;;44.72;25.58;;;4.40;99.90;;;;;;6249546;22;20014;-83
2021/01/18 09:38:03;;;;;;;45.63;25.77;;;4.40;99.90;;;;;;6250067;22;20027;-83
2021/01/18 09:40:30;;;;;;;46.33;24.83;;;4.40;99.90;;;;;;6250167;22;20004;-83
2021/01/18 09:42:57;;;;;;;41.25;24.95;;;4.40;99.90;;;;;;6250211;22;20077;-84
2021/01/18 09:45:25;;;;;;;41.58;23.92;;;4.40;99.90;;;;;;6249426;22;20046;-83
2021/01/18 09:47:52;;;;;;;47.72;23.95;;;4.40;99.90;;;;;;6276810;22;20513;-85
2021/01/18 09:50:20;;;;;;;40.00;23.20;;;4.50;99.90;;;;;;6249611;22;19995;-86
2021/01/18 09:52:50;;;;;;;40.08;21.52;;;4.50;99.90;;;;;;6250620;22;20037;-89
2021/01/18 09:55:25;;;;;;;37.10;21.00;;;4.50;99.90;;;;;;6251914;22;20445;-89
2021/01/18 09:58:15;;;;;;;42.30;22.80;;;4.50;99.90;;;;;;6251201;22;20012;-86
2021/01/18 10:00:47;;;;;;;45.58;21.70;;;4.60;99.90;;;;;;6250762;22;20393;-85
2021/01/18 10:03:28;;;;;;;34.35;21.40;;;4.70;99.90;;;;;;6250987;22;20030;-83
2021/01/18 10:06:27;;;;;;;41.85;22.15;;;4.80;99.90;;;;;;6277646;22;19996;-86
2021/01/18 10:09:03;;;;;;;43.55;22.23;;;4.80;99.90;;;;;;6250873;22;20008;-83
2021/01/18 10:11:50;;;;;;;37.08;22.20;;;4.80;99.90;;;;;;6251054;22;20000;-87
2021/01/18 10:14:28;;;;;;;49.75;23.08;;;4.80;99.90;;;;;;6251806;22;20000;-86
2021/01/18 10:17:07;;;;;;;40.60;22.25;;;4.80;99.90;;;;;;6278466;22;20008;-86
2021/01/18 10:19:42;;;;;;;38.88;22.58;;;4.80;99.90;;;;;;6251195;22;20027;-86
2021/01/18 10:22:19;;;;;;;38.55;20.73;;;4.90;99.90;;;;;;6250706;22;20000;-85
2021/01/18 10:24:55;;;;;;;34.78;20.83;;;4.90;99.90;;;;;;6251025;22;20065;-84
2021/01/18 10:27:28;;;;;;;40.25;20.75;;;4.90;99.90;;;;;;6278502;22;19996;-87
2021/01/18 10:30:11;;;;;;;;;;;4.90;99.90;;;;;;6251554;22;20022;-86
2021/01/18 10:32:41;;;;;;;42.67;22.13;;;5.00;99.90;;;;;;6248398;22;19954;-85
2021/01/18 10:35:29;;;;;;;33.95;22.65;;;5.00;99.90;;;;;;6250567;22;20023;-86
2021/01/18 10:38:18;;;;;;;38.38;21.95;;;5.10;99.90;;;;;;6277953;22;20434;-84
2021/01/18 10:41:08;;;;;;;36.97;21.00;;;5.20;99.90;;;;;;6251910;22;20007;-85
2021/01/18 10:43:34;;;;;;;42.08;22.40;;;5.30;99.90;;;;;;6252856;22;20059;-84
2021/01/18 10:46:00;;;;;;;43.15;22.70;;;5.30;99.90;;;;;;6251416;22;20006;-83
2021/01/18 10:48:33;;;;;;;46.05;23.55;;;5.50;99.90;;;;;;6251003;22;19999;-86
2021/01/18 10:51:02;;;;;;;47.13;21.73;;;5.50;99.90;;;;;;6254192;22;20062;-83
2021/01/18 10:53:31;;;;;;;39.53;23.25;;;5.50;99.90;;;;;;6253442;22;20006;-85
2021/01/18 10:56:17;;;;;;;40.05;22.23;;;5.50;99.90;;;;;;6256812;22;20450;-84
2021/01/18 10:58:43;;;;;;;40.28;22.67;;;5.50;99.90;;;;;;6256916;22;20053;-83
2021/01/18 11:01:14;;;;;;;42.05;22.25;;;5.50;99.90;;;;;;6256108;22;20007;-84
2021/01/18 11:03:40;;;;;;;37.15;22.35;;;5.40;99.90;;;;;;6293232;22;20020;-84
2021/01/18 11:06:14;;;;;;;41.08;22.27;;;5.40;99.90;;;;;;6258023;22;20015;-85
2021/01/18 11:08:41;;;;;;;38.30;21.77;;;5.40;99.90;;;;;;6251277;22;20004;-85
2021/01/18 11:11:17;;;;;;;37.95;21.80;;;5.40;99.90;;;;;;6251329;22;20007;-83
2021/01/18 11:13:44;;;;;;;35.50;20.52;;;5.40;99.90;;;;;;6251106;22;20082;-86
2021/01/18 11:16:15;;;;;;;35.67;21.95;;;5.50;99.90;;;;;;6278154;22;20346;-86
2021/01/18 11:18:41;;;;;;;33.95;20.85;;;5.50;99.90;;;;;;6251414;22;20023;-84
2021/01/18 11:21:07;;;;;;;45.95;22.25;;;5.40;99.90;;;;;;6251137;22;20022;-83
2021/01/18 11:23:34;;;;;;;32.95;19.25;;;5.50;99.90;;;;;;6278574;22;20000;-85
2021/01/18 11:26:00;;;;;;;35.47;20.50;;;5.50;99.90;;;;;;6278987;22;20000;-84
2021/01/18 11:28:25;;;;;;;33.30;19.08;;;5.40;99.90;;;;;;6278489;22;19996;-87
2021/01/18 11:30:51;;;;;;;28.25;17.75;;;5.40;99.90;;;;;;6279205;22;20433;-85
2021/01/18 11:33:17;;;;;;;36.15;19.60;;;5.50;99.90;;;;;;6250532;22;20421;-83
2021/01/18 11:35:44;;;;;;;30.35;18.20;;;5.50;99.90;;;;;;6278044;22;20000;-83
2021/01/18 11:38:13;;;;;;;29.20;17.30;;;5.40;99.90;;;;;;6278027;22;20012;-83
2021/01/18 11:40:39;;;;;;;28.60;17.00;;;5.50;99.90;;;;;;6252258;22;20000;-84
2021/01/18 11:43:05;;;;;;;33.08;18.42;;;5.50;99.90;;;;;;6278842;22;20000;-85
2021/01/18 11:45:31;;;;;;;25.38;15.93;;;5.50;99.90;;;;;;6251505;22;20026;-83
2021/01/18 11:47:57;;;;;;;28.15;16.45;;;5.50;99.90;;;;;;6251799;22;20419;-86
2021/01/18 11:50:23;;;;;;;29.35;16.20;;;5.40;99.90;;;;;;6251779;22;19999;-85
2021/01/18 11:52:54;;;;;;;31.05;15.25;;;5.40;99.90;;;;;;6226395;22;20434;-85
2021/01/18 11:55:20;;;;;;;28.27;15.57;;;5.40;99.90;;;;;;6251506;22;20327;-87
2021/01/18 11:57:48;;;;;;;28.67;14.40;;;5.40;99.90;;;;;;6278516;22;20008;-83
2021/01/18 12:00:18;;;;;;;24.73;14.75;;;5.50;99.90;;;;;;6251037;22;20011;-82
2021/01/18 12:02:44;;;;;;;23.67;14.73;;;5.50;99.90;;;;;;6251677;22;20074;-83
2021/01/18 12:05:10;;;;;;;27.60;14.13;;;5.50;99.90;;;;;;6278453;22;20249;-84
2021/01/18 12:07:37;;;;;;;27.80;13.98;;;5.50;99.90;;;;;;6251700;22;20008;-84
2021/01/18 12:10:04;;;;;;;24.48;12.20;;;5.60;99.90;;;;;;6245774;22;20331;-81
2021/01/18 12:12:29;;;;;;;23.52;11.70;;;5.60;99.90;;;;;;6273684;22;20034;-84
2021/01/18 12:14:55;;;;;;;23.52;11.65;;;5.60;99.90;;;;;;6273525;22;20000;-83
2021/01/18 12:17:21;;;;;;;22.25;11.82;;;5.70;99.90;;;;;;6273091;22;20015;-83
2021/01/18 12:19:47;;;;;;;20.25;11.27;;;5.70;99.90;;;;;;6246870;22;20053;-83
2021/01/18 12:22:17;;;;;;;19.08;10.77;;;5.80;99.90;;;;;;6277161;22;20094;-85
2021/01/18 12:24:42;;;;;;;25.90;11.23;;;5.80;99.90;;;;;;6251192;22;20000;-85
2021/01/18 12:27:09;;;;;;;32.35;12.23;;;5.80;99.90;;;;;;6251559;22;20061;-84
2021/01/18 12:29:34;;;;;;;31.45;13.75;;;5.80;99.90;;;;;;6251165;22;20026;-85
2021/01/18 12:32:00;;;;;;;25.73;10.35;;;5.80;99.90;;;;;;6278137;22;20422;-83
2021/01/18 12:34:25;;;;;;;21.50;10.43;;;5.80;99.90;;;;;;6278771;22;20000;-85
2021/01/18 12:36:58;;;;;;;22.13;11.38;;;5.90;99.90;;;;;;6278426;22;20043;-85
2021/01/18 12:39:25;;;;;;;22.88;11.50;;;5.90;99.90;;;;;;6252997;22;20012;-84
2021/01/18 12:41:51;;;;;;;28.00;11.57;;;5.90;99.90;;;;;;6279243;22;20006;-84
2021/01/18 12:44:17;;;;;;;27.58;10.98;;;5.90;99.90;;;;;;6252131;22;20074;-85
2021/01/18 12:46:43;;;;;;;24.77;11.80;;;5.90;99.90;;;;;;6252962;22;20003;-87
2021/01/18 12:49:08;;;;;;;23.90;10.23;;;5.90;99.90;;;;;;6283039;22;19999;-85
2021/01/18 12:51:34;;;;;;;29.95;12.57;;;5.90;99.90;;;;;;6274083;22;20007;-86
2021/01/18 12:54:00;;;;;;;21.35;10.65;;;5.90;99.90;;;;;;6270751;22;20092;-86
2021/01/18 12:56:28;;;;;;;21.48;10.43;;;6.00;99.90;;;;;;6266840;22;20030;-86
2021/01/18 12:58:55;;;;;;;21.60;10.75;;;5.90;99.90;;;;;;6261135;22;20051;-85
2021/01/18 13:01:31;;;;;;;20.55;10.63;;;6.00;99.90;;;;;;6261523;22;20014;-81
2021/01/18 13:03:58;;;;;;;27.25;11.30;;;6.00;99.90;;;;;;6280771;22;20000;-85
2021/01/18 13:06:40;;;;;;;19.15;10.45;;;6.00;99.90;;;;;;6276497;22;20037;-81
2021/01/18 13:09:14;;;;;;;25.55;11.23;;;6.10;99.90;;;;;;6275174;22;20012;-83
2021/01/18 13:11:42;;;;;;;21.60;10.13;;;6.20;99.90;;;;;;6248384;22;20482;-84
2021/01/18 13:14:08;;;;;;;23.02;10.07;;;6.40;99.90;;;;;;6246316;22;20093;-83
2021/01/18 13:16:33;;;;;;;19.90;10.75;;;6.50;99.90;;;;;;6246371;22;20443;-84
2021/01/18 13:18:59;;;;;;;26.45;10.77;;;6.60;99.90;;;;;;6247088;22;20082;-85